Morgenster — PHMY — position and weather

sailwx.info

Track history (hours):
 
Tides and Currents Weather Stations Pressure Air Temp Water Temp Dewpoint Dewpoint Depression Visibility Wind Speed Wind Dir Waves Ship Positions

Morgenster

Last reported at 2016-Aug-29 19:18 UTC. Time now 2016-Aug-31 07:59 UTC.
Position N 55°21' W 001°09'.

Length 38 m; draft 2.4 m.

Type: Sailing vessel. MMSI: 245136000.

Date/timePositionNaut miles runAvg speedWind from/ knotsBaromVisibWave heightAir tempDewpointWater temp
2016-Aug-29 19:18N 55°21' W 001°09'7 9.3
2016-Aug-29 18:33N 55°15' W 001°13'7 6.6
2016-Aug-29 17:33N 55°09' W 001°18'7 6.7
2016-Aug-29 16:34N 55°03' W 001°23'4 3.6
2016-Aug-29 15:34N 55°06' W 001°23'5 5.3
2016-Aug-29 14:33N 55°01' W 001°21'3 3.3
2016-Aug-29 13:33N 54°58' W 001°20'6 6.4
2016-Aug-29 12:33N 55°04' W 001°25'5 4.9
2016-Aug-29 11:32N 55°08' W 001°30'0 0.0
2016-Aug-29 10:32N 55°08' W 001°30'0 0.0
2016-Aug-29 09:32N 55°08' W 001°30'0 0.0
2016-Aug-29 08:32N 55°08' W 001°30'0 0.0
2016-Aug-29 07:32N 55°08' W 001°30'0 0.0
2016-Aug-29 06:29N 55°08' W 001°30'0 0.0
2016-Aug-29 05:32N 55°08' W 001°30'0 0.0
2016-Aug-29 04:32N 55°08' W 001°30'0 0.0
2016-Aug-29 03:32N 55°08' W 001°30'0 0.0
2016-Aug-29 02:32N 55°08' W 001°30'0 0.0
2016-Aug-29 01:32N 55°08' W 001°30'0 0.0
2016-Aug-29 00:32N 55°08' W 001°30'0 0.0
2016-Aug-28 23:32N 55°08' W 001°30'0 0.0
2016-Aug-28 22:32N 55°08' W 001°30'0 0.0
2016-Aug-28 21:32N 55°08' W 001°30'0 0.0
2016-Aug-28 20:32N 55°08' W 001°30'0 0.0
2016-Aug-28 19:32N 55°08' W 001°30'0 0.0
2016-Aug-28 18:32N 55°08' W 001°30'0 0.0
2016-Aug-28 17:32N 55°08' W 001°30'0 0.0
2016-Aug-28 16:32N 55°08' W 001°30'0 0.0
2016-Aug-28 15:32N 55°08' W 001°30'0 0.0
2016-Aug-28 14:32N 55°08' W 001°30'0 0.0
2016-Aug-28 13:32N 55°08' W 001°30'0 0.0
2016-Aug-28 12:32N 55°08' W 001°30'0 0.0
2016-Aug-28 11:32N 55°08' W 001°30'0 0.0
2016-Aug-28 10:32N 55°08' W 001°30'0 0.0
2016-Aug-28 09:32N 55°08' W 001°30'0 0.0
2016-Aug-28 08:32N 55°08' W 001°30'0 0.0
2016-Aug-28 07:32N 55°08' W 001°30'0 0.0
2016-Aug-28 06:29N 55°08' W 001°30'0 0.0
2016-Aug-28 05:32N 55°08' W 001°30'0 0.0
2016-Aug-28 04:32N 55°08' W 001°30'0 0.0
2016-Aug-28 03:32N 55°08' W 001°30'0 0.0
2016-Aug-28 02:32N 55°08' W 001°30'0 0.0
2016-Aug-28 01:32N 55°08' W 001°30'0 0.0
2016-Aug-28 00:32N 55°08' W 001°30'0 0.0
2016-Aug-27 23:32N 55°08' W 001°30'0 0.0
2016-Aug-27 22:32N 55°08' W 001°30'0 0.0
2016-Aug-27 21:32N 55°08' W 001°30'0 0.0
2016-Aug-27 20:32N 55°08' W 001°30'0 0.0
2016-Aug-27 19:32N 55°08' W 001°30'0 0.0
2016-Aug-27 18:32N 55°08' W 001°30'0 0.0
2016-Aug-27 17:32N 55°08' W 001°30'0 0.0
2016-Aug-27 16:32N 55°08' W 001°30'0 0.0
2016-Aug-27 15:32N 55°08' W 001°30'0 0.0
2016-Aug-27 14:32N 55°08' W 001°30'0 0.0
2016-Aug-27 13:32N 55°08' W 001°30'0 0.0
2016-Aug-27 12:32N 55°08' W 001°30'0 0.0
2016-Aug-27 11:32N 55°08' W 001°30'0 0.0
2016-Aug-27 10:32N 55°08' W 001°30'0 0.0
2016-Aug-27 09:32N 55°08' W 001°30'0 0.0
2016-Aug-27 08:32N 55°08' W 001°30'0 0.0
2016-Aug-27 07:32N 55°08' W 001°30'0 0.0
2016-Aug-27 06:32N 55°08' W 001°30'0 0.0
2016-Aug-27 04:32N 55°08' W 001°30'0 0.0
2016-Aug-27 03:32N 55°08' W 001°30'0 0.0
2016-Aug-27 02:32N 55°08' W 001°30'0 0.0
2016-Aug-27 01:32N 55°08' W 001°30'0 0.0
2016-Aug-27 00:32N 55°08' W 001°30'0 0.0
2016-Aug-26 23:32N 55°08' W 001°30'0 0.0
2016-Aug-26 22:32N 55°08' W 001°30'0 0.0
2016-Aug-26 21:32N 55°08' W 001°30'0 0.0
2016-Aug-26 20:32N 55°08' W 001°30'0 0.0
2016-Aug-26 19:32N 55°08' W 001°30'0 0.0
2016-Aug-26 18:32N 55°08' W 001°30'0 0.0
2016-Aug-26 17:32N 55°08' W 001°30'0 0.0
2016-Aug-26 16:32N 55°08' W 001°30'0 0.0
2016-Aug-26 15:32N 55°08' W 001°30'0 0.0
2016-Aug-26 14:32N 55°08' W 001°30'0 0.0
2016-Aug-26 13:32N 55°08' W 001°30'0 0.0
2016-Aug-26 12:32N 55°08' W 001°30'0 0.0
2016-Aug-26 11:32N 55°08' W 001°30'0 0.0
2016-Aug-26 10:32N 55°08' W 001°30'0 0.0
2016-Aug-26 09:32N 55°08' W 001°30'0 0.0
2016-Aug-26 08:32N 55°08' W 001°30'0 0.0
2016-Aug-26 07:32N 55°08' W 001°30'0 0.0
2016-Aug-26 06:32N 55°08' W 001°30'0 0.0
2016-Aug-26 04:32N 55°08' W 001°30'0 0.0
2016-Aug-26 03:32N 55°08' W 001°30'0 0.0
2016-Aug-26 02:32N 55°08' W 001°30'0 0.0
2016-Aug-26 01:32N 55°08' W 001°30'0 0.0
2016-Aug-26 00:32N 55°08' W 001°30'0 0.0
2016-Aug-25 23:32N 55°08' W 001°30'0 0.0
2016-Aug-25 22:32N 55°08' W 001°30'0 0.0
2016-Aug-25 21:32N 55°08' W 001°30'0 0.0
2016-Aug-25 20:32N 55°08' W 001°30'0 0.0
2016-Aug-25 19:32N 55°08' W 001°30'0 0.0
2016-Aug-25 18:32N 55°08' W 001°30'0 0.0
2016-Aug-25 17:32N 55°08' W 001°30'0 0.0
2016-Aug-25 16:32N 55°08' W 001°30'1 1.2
2016-Aug-25 15:33N 55°07' W 001°28'1 1.2
2016-Aug-25 14:33N 55°08' W 001°30'0 0.0
2016-Aug-25 13:33N 55°08' W 001°30'0 0.0
2016-Aug-25 12:33N 55°08' W 001°30'0 0.0
2016-Aug-25 11:33N 55°08' W 001°30'3 3.4
2016-Aug-25 10:33N 55°05' W 001°26'4 3.7
2016-Aug-25 09:31N 55°01' W 001°24'0 0.0
2016-Aug-25 08:31N 55°01' W 001°24'0 0.0
2016-Aug-25 07:31N 55°01' W 001°24'0 0.0
2016-Aug-25 06:31N 55°01' W 001°24'0 0.0
2016-Aug-25 04:31N 55°01' W 001°24'0 0.0
2016-Aug-25 03:34N 55°01' W 001°24'0 0.0
2016-Aug-25 02:34N 55°01' W 001°24'0 0.0
2016-Aug-25 01:31N 55°01' W 001°24'0 0.0
2016-Aug-25 00:31N 55°01' W 001°24'0 0.0
2016-Aug-24 23:31N 55°01' W 001°24'0 0.0
2016-Aug-24 22:31N 55°01' W 001°24'0 0.1
2016-Aug-24 21:34N 55°01' W 001°24'0 0.0
2016-Aug-24 20:31N 55°01' W 001°24'0 0.0
2016-Aug-24 19:31N 55°01' W 001°24'0 0.0
2016-Aug-24 18:31N 55°01' W 001°24'0 0.0
2016-Aug-24 17:31N 55°01' W 001°24'0 0.0
2016-Aug-24 16:31N 55°01' W 001°24'0 0.0
2016-Aug-24 15:34N 55°01' W 001°24'0 0.0
2016-Aug-24 14:34N 55°01' W 001°24'0 0.0
2016-Aug-24 13:28N 55°01' W 001°24'0 0.0
2016-Aug-24 12:31N 55°01' W 001°24'0 0.0
2016-Aug-24 11:31N 55°01' W 001°24'2 2.5
2016-Aug-24 10:33N 54°60' W 001°21'3 3.1
2016-Aug-24 09:34N 54°58' W 001°17'5 4.6
2016-Aug-24 08:33N 54°53' W 001°17'3 2.8
2016-Aug-24 07:33N 54°51' W 001°19'0 0.1
2016-Aug-24 06:33N 54°51' W 001°19'0 0.0
2016-Aug-24 04:33N 54°51' W 001°19'0 0.0
2016-Aug-24 03:06N 54°51' W 001°19'0 0.0
2016-Aug-24 02:33N 54°51' W 001°19'0 0.0
2016-Aug-24 00:24N 54°51' W 001°19'0 0.0
2016-Aug-23 23:24N 54°51' W 001°19'0 0.0
2016-Aug-23 22:24N 54°51' W 001°19'0 0.0
2016-Aug-23 21:27N 54°51' W 001°19'0 0.0
2016-Aug-23 20:24N 54°51' W 001°19'0 0.0
2016-Aug-23 19:27N 54°51' W 001°19'0 0.0
2016-Aug-23 18:30N 54°51' W 001°19'0 0.0
2016-Aug-23 17:27N 54°51' W 001°19'1 1.5
2016-Aug-23 16:30N 54°50' W 001°17'3 2.7
2016-Aug-23 15:32N 54°48' W 001°14'35 1.4
2016-Aug-22 14:06N 54°27' W 000°26'3 6.1
2016-Aug-22 13:34N 54°24' W 000°23'6 6.0
2016-Aug-22 12:33N 54°20' W 000°17'7 7.1
2016-Aug-22 11:34N 54°14' W 000°10'90 7.4
2016-Aug-21 23:29N 53°05' E 001°27'6 6.8
2016-Aug-21 22:33N 53°00' E 001°34'6 6.1
2016-Aug-21 21:33N 52°55' E 001°39'5 5.1
2016-Aug-21 20:33N 52°51' E 001°45'42 6.5
2016-Aug-21 14:07N 52°12' E 002°06'3 6.2
2016-Aug-21 13:33N 52°08' E 002°07'6 5.8
2016-Aug-21 12:34N 52°02' E 002°07'5 5.1
2016-Aug-21 11:34N 51°57' E 002°09'17 5.3
2016-Aug-21 08:22N 51°41' E 001°60'6 7.1
2016-Aug-21 07:32N 51°36' E 001°55'7 7.7
2016-Aug-21 06:34N 51°29' E 001°50'8 8.0
2016-Aug-21 05:33N 51°22' E 001°44'10 9.7
2016-Aug-21 04:33N 51°13' E 001°37'1010.2
2016-Aug-21 03:33N 51°06' E 001°27'1010.3
2016-Aug-21 02:33N 50°59' E 001°14'4110.2
2016-Aug-20 22:30N 50°38' E 000°18'1111.1
2016-Aug-20 21:32N 50°36' E 000°01'1010.8
2016-Aug-20 20:33N 50°34' W 000°15'  
Track history (hours):
 
Tides and Currents Weather Stations Pressure Air Temp Water Temp Dewpoint Dewpoint Depression Visibility Wind Speed Wind Dir Waves Ship Positions

Morgenster

Last reported at 2016-Aug-29 19:18 UTC. Time now 2016-Aug-31 07:59 UTC.
Position N 55°21' W 001°09'.

Length 38 m; draft 2.4 m.

Type: Sailing vessel. MMSI: 245136000.

Date/timePositionNaut miles runAvg speedWind from/ knotsBaromVisibWave heightAir tempDewpointWater temp
2016-Aug-29 19:18N 55°21' W 001°09'7 9.3
2016-Aug-29 18:33N 55°15' W 001°13'7 6.6
2016-Aug-29 17:33N 55°09' W 001°18'7 6.7
2016-Aug-29 16:34N 55°03' W 001°23'4 3.6
2016-Aug-29 15:34N 55°06' W 001°23'5 5.3
2016-Aug-29 14:33N 55°01' W 001°21'3 3.3
2016-Aug-29 13:33N 54°58' W 001°20'6 6.4
2016-Aug-29 12:33N 55°04' W 001°25'5 4.9
2016-Aug-29 11:32N 55°08' W 001°30'0 0.0
2016-Aug-29 10:32N 55°08' W 001°30'0 0.0
2016-Aug-29 09:32N 55°08' W 001°30'0 0.0
2016-Aug-29 08:32N 55°08' W 001°30'0 0.0
2016-Aug-29 07:32N 55°08' W 001°30'0 0.0
2016-Aug-29 06:29N 55°08' W 001°30'0 0.0
2016-Aug-29 05:32N 55°08' W 001°30'0 0.0
2016-Aug-29 04:32N 55°08' W 001°30'0 0.0
2016-Aug-29 03:32N 55°08' W 001°30'0 0.0
2016-Aug-29 02:32N 55°08' W 001°30'0 0.0
2016-Aug-29 01:32N 55°08' W 001°30'0 0.0
2016-Aug-29 00:32N 55°08' W 001°30'0 0.0
2016-Aug-28 23:32N 55°08' W 001°30'0 0.0
2016-Aug-28 22:32N 55°08' W 001°30'0 0.0
2016-Aug-28 21:32N 55°08' W 001°30'0 0.0
2016-Aug-28 20:32N 55°08' W 001°30'0 0.0
2016-Aug-28 19:32N 55°08' W 001°30'0 0.0
2016-Aug-28 18:32N 55°08' W 001°30'0 0.0
2016-Aug-28 17:32N 55°08' W 001°30'0 0.0
2016-Aug-28 16:32N 55°08' W 001°30'0 0.0
2016-Aug-28 15:32N 55°08' W 001°30'0 0.0
2016-Aug-28 14:32N 55°08' W 001°30'0 0.0
2016-Aug-28 13:32N 55°08' W 001°30'0 0.0
2016-Aug-28 12:32N 55°08' W 001°30'0 0.0
2016-Aug-28 11:32N 55°08' W 001°30'0 0.0
2016-Aug-28 10:32N 55°08' W 001°30'0 0.0
2016-Aug-28 09:32N 55°08' W 001°30'0 0.0
2016-Aug-28 08:32N 55°08' W 001°30'0 0.0
2016-Aug-28 07:32N 55°08' W 001°30'0 0.0
2016-Aug-28 06:29N 55°08' W 001°30'0 0.0
2016-Aug-28 05:32N 55°08' W 001°30'0 0.0
2016-Aug-28 04:32N 55°08' W 001°30'0 0.0
2016-Aug-28 03:32N 55°08' W 001°30'0 0.0
2016-Aug-28 02:32N 55°08' W 001°30'0 0.0
2016-Aug-28 01:32N 55°08' W 001°30'0 0.0
2016-Aug-28 00:32N 55°08' W 001°30'0 0.0
2016-Aug-27 23:32N 55°08' W 001°30'0 0.0
2016-Aug-27 22:32N 55°08' W 001°30'0 0.0
2016-Aug-27 21:32N 55°08' W 001°30'0 0.0
2016-Aug-27 20:32N 55°08' W 001°30'0 0.0
2016-Aug-27 19:32N 55°08' W 001°30'0 0.0
2016-Aug-27 18:32N 55°08' W 001°30'0 0.0
2016-Aug-27 17:32N 55°08' W 001°30'0 0.0
2016-Aug-27 16:32N 55°08' W 001°30'0 0.0
2016-Aug-27 15:32N 55°08' W 001°30'0 0.0
2016-Aug-27 14:32N 55°08' W 001°30'0 0.0
2016-Aug-27 13:32N 55°08' W 001°30'0 0.0
2016-Aug-27 12:32N 55°08' W 001°30'0 0.0
2016-Aug-27 11:32N 55°08' W 001°30'0 0.0
2016-Aug-27 10:32N 55°08' W 001°30'0 0.0
2016-Aug-27 09:32N 55°08' W 001°30'0 0.0
2016-Aug-27 08:32N 55°08' W 001°30'0 0.0
2016-Aug-27 07:32N 55°08' W 001°30'0 0.0
2016-Aug-27 06:32N 55°08' W 001°30'0 0.0
2016-Aug-27 04:32N 55°08' W 001°30'0 0.0
2016-Aug-27 03:32N 55°08' W 001°30'0 0.0
2016-Aug-27 02:32N 55°08' W 001°30'0 0.0
2016-Aug-27 01:32N 55°08' W 001°30'0 0.0
2016-Aug-27 00:32N 55°08' W 001°30'0 0.0
2016-Aug-26 23:32N 55°08' W 001°30'0 0.0
2016-Aug-26 22:32N 55°08' W 001°30'0 0.0
2016-Aug-26 21:32N 55°08' W 001°30'0 0.0
2016-Aug-26 20:32N 55°08' W 001°30'0 0.0
2016-Aug-26 19:32N 55°08' W 001°30'0 0.0
2016-Aug-26 18:32N 55°08' W 001°30'0 0.0
2016-Aug-26 17:32N 55°08' W 001°30'0 0.0
2016-Aug-26 16:32N 55°08' W 001°30'0 0.0
2016-Aug-26 15:32N 55°08' W 001°30'0 0.0
2016-Aug-26 14:32N 55°08' W 001°30'0 0.0
2016-Aug-26 13:32N 55°08' W 001°30'0 0.0
2016-Aug-26 12:32N 55°08' W 001°30'0 0.0
2016-Aug-26 11:32N 55°08' W 001°30'0 0.0
2016-Aug-26 10:32N 55°08' W 001°30'0 0.0
2016-Aug-26 09:32N 55°08' W 001°30'0 0.0
2016-Aug-26 08:32N 55°08' W 001°30'0 0.0
2016-Aug-26 07:32N 55°08' W 001°30'0 0.0
2016-Aug-26 06:32N 55°08' W 001°30'0 0.0
2016-Aug-26 04:32N 55°08' W 001°30'0 0.0
2016-Aug-26 03:32N 55°08' W 001°30'0 0.0
2016-Aug-26 02:32N 55°08' W 001°30'0 0.0
2016-Aug-26 01:32N 55°08' W 001°30'0 0.0
2016-Aug-26 00:32N 55°08' W 001°30'0 0.0
2016-Aug-25 23:32N 55°08' W 001°30'0 0.0
2016-Aug-25 22:32N 55°08' W 001°30'0 0.0
2016-Aug-25 21:32N 55°08' W 001°30'0 0.0
2016-Aug-25 20:32N 55°08' W 001°30'0 0.0
2016-Aug-25 19:32N 55°08' W 001°30'0 0.0
2016-Aug-25 18:32N 55°08' W 001°30'0 0.0
2016-Aug-25 17:32N 55°08' W 001°30'0 0.0
2016-Aug-25 16:32N 55°08' W 001°30'1 1.2
2016-Aug-25 15:33N 55°07' W 001°28'1 1.2
2016-Aug-25 14:33N 55°08' W 001°30'0 0.0
2016-Aug-25 13:33N 55°08' W 001°30'0 0.0
2016-Aug-25 12:33N 55°08' W 001°30'0 0.0
2016-Aug-25 11:33N 55°08' W 001°30'3 3.4
2016-Aug-25 10:33N 55°05' W 001°26'4 3.7
2016-Aug-25 09:31N 55°01' W 001°24'0 0.0
2016-Aug-25 08:31N 55°01' W 001°24'0 0.0
2016-Aug-25 07:31N 55°01' W 001°24'0 0.0
2016-Aug-25 06:31N 55°01' W 001°24'0 0.0
2016-Aug-25 04:31N 55°01' W 001°24'0 0.0
2016-Aug-25 03:34N 55°01' W 001°24'0 0.0
2016-Aug-25 02:34N 55°01' W 001°24'0 0.0
2016-Aug-25 01:31N 55°01' W 001°24'0 0.0
2016-Aug-25 00:31N 55°01' W 001°24'0 0.0
2016-Aug-24 23:31N 55°01' W 001°24'0 0.0
2016-Aug-24 22:31N 55°01' W 001°24'0 0.1
2016-Aug-24 21:34N 55°01' W 001°24'0 0.0
2016-Aug-24 20:31N 55°01' W 001°24'0 0.0
2016-Aug-24 19:31N 55°01' W 001°24'0 0.0
2016-Aug-24 18:31N 55°01' W 001°24'0 0.0
2016-Aug-24 17:31N 55°01' W 001°24'0 0.0
2016-Aug-24 16:31N 55°01' W 001°24'0 0.0
2016-Aug-24 15:34N 55°01' W 001°24'0 0.0
2016-Aug-24 14:34N 55°01' W 001°24'0 0.0
2016-Aug-24 13:28N 55°01' W 001°24'0 0.0
2016-Aug-24 12:31N 55°01' W 001°24'0 0.0
2016-Aug-24 11:31N 55°01' W 001°24'2 2.5
2016-Aug-24 10:33N 54°60' W 001°21'3 3.1
2016-Aug-24 09:34N 54°58' W 001°17'5 4.6
2016-Aug-24 08:33N 54°53' W 001°17'3 2.8
2016-Aug-24 07:33N 54°51' W 001°19'0 0.1
2016-Aug-24 06:33N 54°51' W 001°19'0 0.0
2016-Aug-24 04:33N 54°51' W 001°19'0 0.0
2016-Aug-24 03:06N 54°51' W 001°19'0 0.0
2016-Aug-24 02:33N 54°51' W 001°19'0 0.0
2016-Aug-24 00:24N 54°51' W 001°19'0 0.0
2016-Aug-23 23:24N 54°51' W 001°19'0 0.0
2016-Aug-23 22:24N 54°51' W 001°19'0 0.0
2016-Aug-23 21:27N 54°51' W 001°19'0 0.0
2016-Aug-23 20:24N 54°51' W 001°19'0 0.0
2016-Aug-23 19:27N 54°51' W 001°19'0 0.0
2016-Aug-23 18:30N 54°51' W 001°19'0 0.0
2016-Aug-23 17:27N 54°51' W 001°19'1 1.5
2016-Aug-23 16:30N 54°50' W 001°17'3 2.7
2016-Aug-23 15:32N 54°48' W 001°14'35 1.4
2016-Aug-22 14:06N 54°27' W 000°26'3 6.1
2016-Aug-22 13:34N 54°24' W 000°23'6 6.0
2016-Aug-22 12:33N 54°20' W 000°17'7 7.1
2016-Aug-22 11:34N 54°14' W 000°10'90 7.4
2016-Aug-21 23:29N 53°05' E 001°27'6 6.8
2016-Aug-21 22:33N 53°00' E 001°34'6 6.1
2016-Aug-21 21:33N 52°55' E 001°39'5 5.1
2016-Aug-21 20:33N 52°51' E 001°45'42 6.5
2016-Aug-21 14:07N 52°12' E 002°06'3 6.2
2016-Aug-21 13:33N 52°08' E 002°07'6 5.8
2016-Aug-21 12:34N 52°02' E 002°07'5 5.1
2016-Aug-21 11:34N 51°57' E 002°09'17 5.3
2016-Aug-21 08:22N 51°41' E 001°60'6 7.1
2016-Aug-21 07:32N 51°36' E 001°55'7 7.7
2016-Aug-21 06:34N 51°29' E 001°50'8 8.0
2016-Aug-21 05:33N 51°22' E 001°44'10 9.7
2016-Aug-21 04:33N 51°13' E 001°37'1010.2
2016-Aug-21 03:33N 51°06' E 001°27'1010.3
2016-Aug-21 02:33N 50°59' E 001°14'4110.2
2016-Aug-20 22:30N 50°38' E 000°18'1111.1
2016-Aug-20 21:32N 50°36' E 000°01'1010.8
2016-Aug-20 20:33N 50°34' W 000°15'  

Dump ship's entire track history